Time;durP1;ratioP1;P1;durP2;ratioP2;P2;SDS_P1;SDS_P2;PMS_P1;PMS_P2;Temp;Humidity;BMP_temperature;BMP_pressure;BME280_temperature;BME280_humidity;BME280_pressure;Samples;Min_cycle;Max_cycle;Signal;HPM_P1;HPM_P2
2022/06/19 00:00:47;;;;;;;3.97;1.10;;;23.50;60.80;;;;;;5071445;28;20444;-58
2022/06/19 00:03:23;;;;;;;5.22;1.00;;;23.60;60.90;;;;;;5072801;28;20480;-58
2022/06/19 00:05:48;;;;;;;5.40;1.17;;;23.50;60.90;;;;;;5070498;28;20045;-59
2022/06/19 00:08:14;;;;;;;4.07;0.93;;;23.60;60.90;;;;;;5072492;28;20147;-59
2022/06/19 00:10:40;;;;;;;5.70;1.05;;;23.50;60.90;;;;;;5072462;28;20069;-58
2022/06/19 00:13:05;;;;;;;5.40;1.23;;;23.50;60.90;;;;;;5070268;28;20075;-59
2022/06/19 00:15:31;;;;;;;6.10;1.23;;;23.50;60.90;;;;;;5072617;28;20075;-59
2022/06/19 00:17:56;;;;;;;5.05;1.08;;;23.50;60.90;;;;;;5072155;28;20056;-58
2022/06/19 00:20:22;;;;;;;6.53;0.98;;;23.50;60.90;;;;;;5071514;28;20047;-59
2022/06/19 00:22:47;;;;;;;4.70;1.10;;;23.50;60.90;;;;;;5072061;28;20056;-58
2022/06/19 00:25:13;;;;;;;2.20;0.63;;;23.50;60.90;;;;;;5072529;28;20036;-59
2022/06/19 00:27:39;;;;;;;7.55;1.58;;;23.50;60.90;;;;;;5071283;28;20049;-58
2022/06/19 00:30:06;;;;;;;6.78;1.23;;;23.50;60.90;;;;;;5071922;28;20052;-58
2022/06/19 00:32:31;;;;;;;6.82;1.38;;;23.40;60.90;;;;;;5072230;28;20106;-59
2022/06/19 00:34:57;;;;;;;4.38;1.05;;;23.40;60.90;;;;;;5071146;28;20044;-59
2022/06/19 00:37:22;;;;;;;5.15;1.10;;;23.40;60.90;;;;;;5072643;28;20047;-59
2022/06/19 00:39:48;;;;;;;4.05;1.05;;;23.40;60.90;;;;;;5072183;28;20455;-59
2022/06/19 00:42:14;;;;;;;3.40;1.08;;;23.40;60.90;;;;;;5071546;28;20044;-59
2022/06/19 00:44:40;;;;;;;4.85;0.80;;;23.40;60.80;;;;;;5071723;28;20090;-59
2022/06/19 00:47:20;;;;;;;4.22;0.93;;;23.40;60.80;;;;;;5072285;28;20048;-59
2022/06/19 00:49:57;;;;;;;5.43;1.00;;;23.40;60.80;;;;;;5071214;28;20080;-59
2022/06/19 00:52:30;;;;;;;5.07;1.08;;;23.40;60.80;;;;;;5071312;28;20053;-59
2022/06/19 00:55:17;;;;;;;4.13;1.13;;;23.40;60.80;;;;;;5070933;28;20052;-59
2022/06/19 00:57:44;;;;;;;5.13;0.98;;;23.40;60.90;;;;;;5069937;28;20135;-59
2022/06/19 01:00:13;;;;;;;5.05;1.20;;;23.40;60.90;;;;;;5071080;28;20048;-59
2022/06/19 01:02:39;;;;;;;6.13;1.20;;;23.40;60.90;;;;;;5071560;28;20116;-59
2022/06/19 01:05:05;;;;;;;7.07;1.20;;;23.40;60.90;;;;;;5071984;28;20055;-59
2022/06/19 01:07:31;;;;;;;5.57;1.45;;;23.40;60.90;;;;;;5070751;28;20049;-59
2022/06/19 01:09:57;;;;;;;6.60;1.23;;;23.40;60.80;;;;;;5052941;28;20041;-59
2022/06/19 01:12:22;;;;;;;6.13;1.60;;;23.40;60.90;;;;;;5071516;28;20050;-59
2022/06/19 01:14:48;;;;;;;6.13;1.10;;;23.40;60.80;;;;;;5070234;28;20045;-59
2022/06/19 01:17:14;;;;;;;5.60;1.35;;;23.40;60.90;;;;;;5070959;28;20041;-59
2022/06/19 01:19:41;;;;;;;4.97;0.95;;;23.30;60.80;;;;;;5070723;28;20040;-59
2022/06/19 01:22:26;;;;;;;4.78;1.33;;;23.40;60.80;;;;;;5071794;28;20045;-59
2022/06/19 01:25:06;;;;;;;4.70;1.25;;;23.30;60.80;;;;;;5069462;28;20472;-58
2022/06/19 01:30:19;;;;;;;6.60;1.20;;;23.30;60.80;;;;;;5073717;28;20052;-59
2022/06/19 01:32:46;;;;;;;7.45;1.52;;;23.30;60.80;;;;;;5074919;28;20404;-58
2022/06/19 01:35:11;;;;;;;5.93;0.93;;;23.30;60.80;;;;;;5073951;28;20036;-58
2022/06/19 01:37:37;;;;;;;5.85;1.20;;;23.30;60.80;;;;;;5073589;28;20086;-59
2022/06/19 01:40:05;;;;;;;4.35;0.88;;;23.30;60.80;;;;;;5057277;28;20080;-58
2022/06/19 01:42:31;;;;;;;6.93;1.25;;;23.30;60.80;;;;;;5075460;28;20121;-58
2022/06/19 01:44:56;;;;;;;7.28;1.13;;;23.30;60.80;;;;;;5073961;28;20491;-58
2022/06/19 01:47:27;;;;;;;5.97;1.13;;;23.30;60.80;;;;;;5074840;28;20044;-58
2022/06/19 01:49:54;;;;;;;5.25;1.17;;;23.20;60.70;;;;;;5074732;28;20036;-58
2022/06/19 01:52:19;;;;;;;5.30;1.40;;;23.30;60.80;;;;;;5073335;28;20044;-58
2022/06/19 01:54:50;;;;;;;5.07;1.13;;;23.30;60.70;;;;;;5073325;28;20048;-59
2022/06/19 01:57:15;;;;;;;5.57;1.10;;;23.20;60.70;;;;;;5074889;28;20109;-58
2022/06/19 01:59:41;;;;;;;8.20;1.65;;;23.20;60.70;;;;;;5072325;28;20509;-58
2022/06/19 02:02:08;;;;;;;5.28;1.08;;;23.20;60.60;;;;;;5074765;28;20047;-58
2022/06/19 02:04:33;;;;;;;5.80;1.33;;;23.20;60.60;;;;;;5074582;28;20052;-58
2022/06/19 02:07:01;;;;;;;6.53;1.40;;;23.20;60.60;;;;;;5072122;28;20654;-58
2022/06/19 02:09:27;;;;;;;6.63;1.45;;;23.20;60.60;;;;;;5073920;28;20124;-58
2022/06/19 02:11:53;;;;;;;7.13;1.45;;;23.20;60.60;;;;;;5074449;28;20131;-58
2022/06/19 02:14:18;;;;;;;4.43;1.17;;;23.20;60.60;;;;;;5073620;28;20036;-59
2022/06/19 02:16:45;;;;;;;5.72;0.90;;;23.20;60.60;;;;;;5073025;28;20372;-59
2022/06/19 02:19:11;;;;;;;5.28;1.15;;;23.20;60.70;;;;;;5072393;28;20115;-60
2022/06/19 02:21:48;;;;;;;7.03;1.02;;;23.20;60.70;;;;;;5074421;28;20201;-59
2022/06/19 02:24:19;;;;;;;5.83;1.30;;;23.20;60.70;;;;;;5074227;28;20037;-59
2022/06/19 02:26:44;;;;;;;6.40;1.17;;;23.20;60.70;;;;;;5072013;28;20059;-59
2022/06/19 02:29:12;;;;;;;5.28;1.00;;;23.20;60.70;;;;;;5074108;28;20045;-59
2022/06/19 02:31:39;;;;;;;4.88;0.93;;;23.10;60.60;;;;;;5074494;28;20037;-59
2022/06/19 02:34:32;;;;;;;6.57;1.25;;;23.20;60.70;;;;;;5072347;28;20044;-59
2022/06/19 02:36:59;;;;;;;3.58;1.23;;;23.10;60.60;;;;;;5070630;28;20080;-59
2022/06/19 02:39:38;;;;;;;7.00;1.75;;;23.10;60.60;;;;;;5073516;28;20055;-59
2022/06/19 02:42:28;;;;;;;3.13;0.82;;;23.10;60.60;;;;;;5071821;28;20047;-59
2022/06/19 02:45:01;;;;;;;5.20;1.17;;;23.20;60.60;;;;;;5072304;28;20040;-59
2022/06/19 02:47:27;;;;;;;4.38;0.80;;;23.10;60.60;;;;;;5072932;28;20056;-59
2022/06/19 02:49:53;;;;;;;6.13;1.25;;;23.10;60.50;;;;;;5073483;28;20041;-59
2022/06/19 02:52:18;;;;;;;6.78;1.20;;;23.10;60.50;;;;;;5073785;28;20510;-59
2022/06/19 02:54:44;;;;;;;4.82;1.00;;;23.10;60.50;;;;;;5072137;28;20044;-59
2022/06/19 02:57:10;;;;;;;4.18;1.15;;;23.10;60.50;;;;;;5073400;28;20044;-59
2022/06/19 02:59:36;;;;;;;5.75;1.30;;;23.10;60.50;;;;;;5072276;28;20047;-58
2022/06/19 03:02:02;;;;;;;5.20;1.13;;;23.10;60.50;;;;;;5072422;28;20131;-58
2022/06/19 03:04:32;;;;;;;4.20;0.90;;;23.10;60.40;;;;;;5073130;28;20045;-59
2022/06/19 03:06:58;;;;;;;5.05;1.15;;;23.10;60.40;;;;;;5071555;28;20480;-59
2022/06/19 03:09:23;;;;;;;5.22;1.45;;;23.10;60.30;;;;;;5072554;28;20037;-59
2022/06/19 03:11:50;;;;;;;4.32;1.15;;;23.00;60.20;;;;;;5072919;28;20123;-59
2022/06/19 03:14:16;;;;;;;5.03;0.80;;;23.00;60.20;;;;;;5073326;28;20084;-58
2022/06/19 03:16:41;;;;;;;4.68;0.90;;;23.00;60.20;;;;;;5072405;28;20074;-59
2022/06/19 03:19:07;;;;;;;5.47;0.90;;;23.00;60.30;;;;;;5072077;28;20458;-59
2022/06/19 03:21:33;;;;;;;5.95;1.08;;;23.00;60.20;;;;;;5073084;28;20040;-58
2022/06/19 03:23:58;;;;;;;7.47;1.77;;;23.00;60.20;;;;;;5072253;28;20426;-59
2022/06/19 03:26:26;;;;;;;7.18;1.15;;;23.00;60.10;;;;;;5072969;28;20147;-59
2022/06/19 03:28:52;;;;;;;4.43;1.00;;;23.00;60.00;;;;;;5072949;28;20040;-59
2022/06/19 03:31:20;;;;;;;4.45;1.08;;;23.00;60.00;;;;;;5072512;28;20123;-59
2022/06/19 03:33:45;;;;;;;5.20;0.93;;;23.00;60.00;;;;;;5072633;28;20046;-59
2022/06/19 03:36:11;;;;;;;5.10;0.98;;;23.00;60.10;;;;;;5072852;28;20040;-59
2022/06/19 03:38:36;;;;;;;5.63;1.17;;;23.00;60.20;;;;;;5072058;28;20101;-59
2022/06/19 03:41:02;;;;;;;4.07;0.85;;;23.00;60.10;;;;;;5072566;28;20041;-59
2022/06/19 03:43:27;;;;;;;4.05;0.90;;;23.00;60.10;;;;;;5072692;28;20045;-59
2022/06/19 03:46:05;;;;;;;3.95;1.27;;;23.00;60.10;;;;;;5071658;28;20113;-59
2022/06/19 03:48:31;;;;;;;5.60;1.17;;;23.00;60.20;;;;;;5072911;28;20127;-59
2022/06/19 03:50:56;;;;;;;3.53;0.80;;;23.00;60.20;;;;;;5069988;28;20136;-59
2022/06/19 03:53:22;;;;;;;5.28;1.17;;;23.00;60.10;;;;;;5072791;28;20476;-59
2022/06/19 03:55:47;;;;;;;6.82;1.10;;;22.90;60.10;;;;;;5072517;28;20837;-59
2022/06/19 03:58:13;;;;;;;4.55;0.70;;;23.00;60.00;;;;;;5071699;28;20373;-59
2022/06/19 04:00:39;;;;;;;3.55;0.70;;;22.90;60.00;;;;;;5072877;28;20430;-59
2022/06/19 04:03:05;;;;;;;4.28;1.27;;;22.90;60.00;;;;;;5072444;28;20452;-59
2022/06/19 04:05:31;;;;;;;4.90;1.35;;;22.90;59.90;;;;;;5071251;28;20040;-59
2022/06/19 04:07:57;;;;;;;4.47;0.90;;;22.90;60.00;;;;;;5071900;28;20512;-59
2022/06/19 04:10:22;;;;;;;5.03;1.20;;;22.90;60.00;;;;;;5072758;28;20044;-59
2022/06/19 04:12:48;;;;;;;6.63;1.20;;;22.90;60.00;;;;;;5071658;28;20083;-59
2022/06/19 04:15:14;;;;;;;4.80;1.08;;;22.90;60.00;;;;;;5072760;28;20067;-59
2022/06/19 04:17:39;;;;;;;6.45;1.15;;;22.90;60.00;;;;;;5071058;28;20066;-59
2022/06/19 04:20:07;;;;;;;4.85;1.20;;;22.90;59.80;;;;;;5071709;28;20110;-58
2022/06/19 04:22:33;;;;;;;5.00;0.93;;;22.90;59.80;;;;;;5072441;28;20048;-59
2022/06/19 04:24:59;;;;;;;6.60;1.10;;;22.90;59.80;;;;;;5072051;28;20387;-59
2022/06/19 04:27:24;;;;;;;4.18;0.68;;;22.90;59.70;;;;;;5071345;28;20519;-59
2022/06/19 04:29:50;;;;;;;4.80;1.10;;;22.90;59.70;;;;;;5072069;28;20040;-59
2022/06/19 04:32:15;;;;;;;4.03;0.70;;;22.80;59.60;;;;;;5072232;28;20539;-60
2022/06/19 04:34:41;;;;;;;3.55;0.93;;;22.80;59.60;;;;;;5070965;28;20036;-59
2022/06/19 04:37:07;;;;;;;4.80;0.95;;;22.80;59.70;;;;;;5072106;28;20079;-59
2022/06/19 04:39:33;;;;;;;6.40;0.98;;;22.80;59.80;;;;;;5072075;28;20032;-59
2022/06/19 04:41:59;;;;;;;4.82;0.93;;;22.80;59.80;;;;;;5071272;28;20094;-59
2022/06/19 04:44:24;;;;;;;5.90;0.80;;;22.80;59.80;;;;;;5071030;28;20052;-59
2022/06/19 04:46:50;;;;;;;6.05;1.00;;;22.80;59.80;;;;;;5071154;28;20051;-59
2022/06/19 04:49:16;;;;;;;5.18;1.10;;;22.80;59.80;;;;;;5071976;28;20049;-58
2022/06/19 04:51:42;;;;;;;4.60;0.90;;;22.80;59.80;;;;;;5071992;28;20045;-59
2022/06/19 04:54:08;;;;;;;4.07;1.10;;;22.80;59.80;;;;;;5071391;28;20087;-58
2022/06/19 04:56:33;;;;;;;4.82;1.05;;;22.80;59.80;;;;;;5072257;28;20068;-59
2022/06/19 04:58:59;;;;;;;4.63;0.80;;;22.80;59.80;;;;;;5071862;28;20373;-59
2022/06/19 05:01:29;;;;;;;4.70;0.80;;;22.80;59.80;;;;;;5071394;28;20506;-59
2022/06/19 05:03:57;;;;;;;4.63;1.35;;;22.80;59.80;;;;;;5073841;28;20040;-58
2022/06/19 05:06:23;;;;;;;;;;;22.80;59.70;;;;;;5076492;28;20044;-59
2022/06/19 05:08:49;;;;;;;3.90;0.90;;;22.80;59.70;;;;;;5074703;28;20026;-59
2022/06/19 05:11:16;;;;;;;4.47;1.08;;;22.70;59.70;;;;;;5075705;28;20452;-59
2022/06/19 05:13:41;;;;;;;4.30;0.80;;;22.80;59.70;;;;;;5075331;28;20101;-59
2022/06/19 05:16:21;;;;;;;5.28;0.82;;;22.80;59.70;;;;;;5074680;28;20049;-59
2022/06/19 05:18:47;;;;;;;4.55;1.15;;;22.80;59.70;;;;;;5075386;28;20048;-59
2022/06/19 05:21:12;;;;;;;4.22;1.00;;;22.80;59.70;;;;;;5075683;28;20048;-59
2022/06/19 05:23:40;;;;;;;3.53;0.93;;;22.80;59.50;;;;;;5074945;28;20048;-59
2022/06/19 05:26:08;;;;;;;4.28;0.73;;;22.80;59.50;;;;;;5074162;28;20060;-59
2022/06/19 05:28:34;;;;;;;3.05;0.80;;;22.80;59.50;;;;;;5075469;28;20045;-59
2022/06/19 05:31:00;;;;;;;4.28;0.90;;;22.80;59.30;;;;;;5074427;28;20079;-59
2022/06/19 05:33:26;;;;;;;4.10;0.82;;;22.90;59.30;;;;;;5075557;28;20480;-58
2022/06/19 05:35:52;;;;;;;5.88;1.00;;;22.90;59.20;;;;;;5074859;28;20048;-59
2022/06/19 05:38:18;;;;;;;6.82;0.82;;;22.90;59.10;;;;;;5074766;28;20048;-59
2022/06/19 05:40:43;;;;;;;4.03;0.80;;;22.90;59.00;;;;;;5075052;28;20044;-59
2022/06/19 05:43:09;;;;;;;4.07;0.90;;;22.90;59.00;;;;;;5074066;28;20045;-59
2022/06/19 05:45:35;;;;;;;4.28;0.90;;;22.90;59.00;;;;;;5075081;28;20047;-59
2022/06/19 05:48:00;;;;;;;6.22;1.27;;;22.90;59.00;;;;;;5074732;28;20044;-59
2022/06/19 05:50:26;;;;;;;6.00;1.27;;;22.90;59.10;;;;;;5074333;28;20037;-59
2022/06/19 05:52:51;;;;;;;5.80;0.90;;;22.90;59.20;;;;;;5074665;28;20044;-59
2022/06/19 05:55:17;;;;;;;4.45;0.93;;;22.90;59.10;;;;;;5075149;28;20523;-59
2022/06/19 05:57:42;;;;;;;4.97;0.70;;;22.90;59.10;;;;;;5073804;28;20504;-59
2022/06/19 06:00:08;;;;;;;3.90;1.00;;;22.90;59.10;;;;;;5074830;28;20076;-59
2022/06/19 06:02:34;;;;;;;5.40;1.00;;;22.90;59.20;;;;;;5074839;28;20040;-59
2022/06/19 06:05:00;;;;;;;2.58;0.77;;;22.90;59.20;;;;;;5073738;28;20056;-59
2022/06/19 06:07:26;;;;;;;2.33;0.55;;;22.90;59.10;;;;;;5074669;28;20060;-59
2022/06/19 06:09:51;;;;;;;3.72;0.93;;;22.90;59.10;;;;;;5074189;28;20045;-59
2022/06/19 06:12:17;;;;;;;3.83;0.80;;;22.80;59.00;;;;;;5072515;28;20194;-59
2022/06/19 06:14:42;;;;;;;7.68;1.52;;;22.90;59.00;;;;;;5073996;28;20572;-59
2022/06/19 06:17:08;;;;;;;5.03;0.90;;;22.80;59.00;;;;;;5074486;28;20487;-59
2022/06/19 06:19:34;;;;;;;5.40;1.00;;;22.80;59.00;;;;;;5072539;28;20040;-59
2022/06/19 06:22:02;;;;;;;3.08;0.60;;;22.80;59.00;;;;;;5073894;28;20396;-59
2022/06/19 06:24:27;;;;;;;4.05;0.73;;;22.80;59.00;;;;;;5074621;28;20115;-59
2022/06/19 06:26:53;;;;;;;4.57;0.88;;;22.90;59.00;;;;;;5073054;28;20056;-59
2022/06/19 06:29:20;;;;;;;4.50;0.80;;;22.80;58.90;;;;;;5074297;28;20044;-59
2022/06/19 06:31:46;;;;;;;3.77;0.60;;;22.80;58.90;;;;;;5074189;28;20101;-59
2022/06/19 06:34:12;;;;;;;3.40;0.82;;;22.80;58.90;;;;;;5073483;28;20036;-59
2022/06/19 06:36:37;;;;;;;2.72;0.68;;;22.80;58.90;;;;;;5074154;28;20040;-59
2022/06/19 06:39:03;;;;;;;2.55;0.45;;;22.80;58.90;;;;;;5073967;28;20040;-59
2022/06/19 06:41:28;;;;;;;2.80;0.75;;;22.80;58.90;;;;;;5073333;28;20431;-59
2022/06/19 06:43:54;;;;;;;3.78;0.95;;;22.80;58.90;;;;;;5073627;28;20053;-59
2022/06/19 06:46:21;;;;;;;2.58;0.55;;;22.80;58.90;;;;;;5072593;28;20046;-59
2022/06/19 06:48:48;;;;;;;3.50;0.63;;;22.80;58.90;;;;;;5073274;28;20094;-59
2022/06/19 06:51:16;;;;;;;3.58;1.00;;;22.80;59.00;;;;;;5074061;28;20037;-59
2022/06/19 06:53:42;;;;;;;2.45;0.70;;;22.80;59.00;;;;;;5072787;28;20041;-59
2022/06/19 06:56:08;;;;;;;2.72;0.82;;;22.80;58.90;;;;;;5074213;28;20044;-59
2022/06/19 06:58:34;;;;;;;3.97;0.88;;;22.80;58.90;;;;;;5073482;28;20035;-59
2022/06/19 07:01:10;;;;;;;4.13;0.90;;;22.80;58.90;;;;;;5072606;28;20078;-59
2022/06/19 07:03:36;;;;;;;4.32;0.60;;;22.80;58.80;;;;;;5073578;28;20044;-59
2022/06/19 07:06:02;;;;;;;2.70;0.60;;;22.80;58.80;;;;;;5073293;28;20052;-58
2022/06/19 07:08:27;;;;;;;4.00;0.90;;;22.80;58.80;;;;;;5072689;28;20122;-58
2022/06/19 07:10:53;;;;;;;4.05;0.90;;;22.80;58.70;;;;;;5073055;28;20107;-58
2022/06/19 07:13:18;;;;;;;5.40;0.68;;;22.80;58.70;;;;;;5073011;28;20098;-59
2022/06/19 07:15:44;;;;;;;4.47;0.70;;;22.80;58.70;;;;;;5072206;28;20044;-58
2022/06/19 07:18:11;;;;;;;4.07;0.85;;;22.70;58.60;;;;;;5073217;28;20044;-58
2022/06/19 07:20:36;;;;;;;4.20;0.98;;;22.80;58.70;;;;;;5073180;28;20446;-59
2022/06/19 07:23:04;;;;;;;4.50;0.80;;;22.80;58.70;;;;;;5072348;28;20056;-59
2022/06/19 07:25:29;;;;;;;4.87;1.03;;;22.70;58.50;;;;;;5072571;28;20472;-58
2022/06/19 07:27:55;;;;;;;2.97;0.65;;;22.70;58.50;;;;;;5071977;28;20504;-59
2022/06/19 07:30:22;;;;;;;3.95;1.02;;;22.80;58.60;;;;;;5072537;28;20079;-59
2022/06/19 07:32:48;;;;;;;3.73;0.87;;;22.80;58.70;;;;;;5072779;28;20119;-59
2022/06/19 07:35:13;;;;;;;4.80;0.60;;;22.70;58.80;;;;;;5072706;28;20107;-59
2022/06/19 07:37:39;;;;;;;3.35;0.73;;;22.80;58.90;;;;;;5071983;28;20472;-59
2022/06/19 07:40:05;;;;;;;5.25;0.80;;;22.80;59.00;;;;;;5072606;28;20052;-59
2022/06/19 07:42:31;;;;;;;5.45;0.80;;;22.80;59.10;;;;;;5073032;28;20048;-59
2022/06/19 07:44:56;;;;;;;3.38;0.80;;;22.80;59.10;;;;;;5071779;28;20048;-59
2022/06/19 07:50:10;;;;;;;8.57;1.17;;;22.80;59.10;;;;;;5071668;28;20049;-59
2022/06/19 07:52:36;;;;;;;4.72;0.80;;;22.80;59.10;;;;;;5071985;28;20041;-58
2022/06/19 07:55:02;;;;;;;4.63;0.70;;;22.80;59.20;;;;;;5071597;28;20059;-59
2022/06/19 07:57:28;;;;;;;5.25;0.95;;;22.80;59.40;;;;;;5071746;28;20041;-59
2022/06/19 07:59:53;;;;;;;5.28;1.00;;;22.80;59.50;;;;;;5071693;28;20415;-59
2022/06/19 08:02:19;;;;;;;6.28;1.00;;;22.80;59.60;;;;;;5069443;28;20032;-59
2022/06/19 08:04:45;;;;;;;2.78;0.60;;;22.80;59.70;;;;;;5071151;28;20037;-59
2022/06/19 08:07:13;;;;;;;8.88;1.08;;;22.80;59.80;;;;;;5072073;28;20048;-59
2022/06/19 08:09:39;;;;;;;5.90;0.95;;;22.80;59.80;;;;;;5069018;28;20068;-59
2022/06/19 08:12:05;;;;;;;3.70;0.68;;;22.80;59.90;;;;;;5070901;28;20079;-59
2022/06/19 08:14:31;;;;;;;2.75;0.57;;;22.80;59.90;;;;;;5071331;28;20060;-59
2022/06/19 08:16:56;;;;;;;5.28;0.70;;;22.80;59.90;;;;;;5071356;28;20388;-59
2022/06/19 08:19:22;;;;;;;4.65;1.20;;;22.80;60.00;;;;;;5071500;28;20044;-59
2022/06/19 08:21:47;;;;;;;4.78;0.65;;;22.80;60.00;;;;;;5072356;28;20147;-59
2022/06/19 08:24:13;;;;;;;5.72;0.82;;;22.80;60.10;;;;;;5072495;28;20037;-59
2022/06/19 08:26:38;;;;;;;3.58;0.63;;;22.80;60.00;;;;;;5071373;28;20067;-59
2022/06/19 08:29:04;;;;;;;4.45;0.77;;;22.80;60.00;;;;;;5071929;28;20041;-59
2022/06/19 08:31:30;;;;;;;2.92;0.75;;;22.80;60.00;;;;;;5071962;28;20127;-59
2022/06/19 08:33:56;;;;;;;5.00;0.63;;;22.80;60.00;;;;;;5071034;28;20090;-59
2022/06/19 08:36:22;;;;;;;7.13;0.80;;;22.90;60.20;;;;;;5072343;28;20114;-59
2022/06/19 08:38:49;;;;;;;7.40;0.85;;;22.90;60.20;;;;;;5075589;28;20052;-59
2022/06/19 08:41:19;;;;;;;5.23;0.90;;;22.90;60.20;;;;;;5074565;28;20127;-59
2022/06/19 08:44:04;;;;;;;3.85;0.82;;;22.90;60.20;;;;;;5076051;28;20499;-59
2022/06/19 08:46:47;;;;;;;3.67;0.70;;;22.90;60.30;;;;;;5074465;28;20182;-59
2022/06/19 08:49:35;;;;;;;3.65;0.85;;;22.90;60.30;;;;;;5076316;28;20037;-59
2022/06/19 08:52:04;;;;;;;5.05;1.00;;;22.90;60.30;;;;;;5074316;28;20415;-59
2022/06/19 08:54:55;;;;;;;4.43;0.85;;;22.90;60.40;;;;;;5073219;28;20044;-59
2022/06/19 08:57:47;;;;;;;5.75;0.80;;;22.90;60.40;;;;;;5074949;28;20037;-59
2022/06/19 09:00:17;;;;;;;6.20;0.90;;;22.90;60.40;;;;;;5075056;28;20075;-59
2022/06/19 09:05:36;;;;;;;5.25;1.00;;;22.90;60.30;;;;;;5075668;28;20102;-59
2022/06/19 09:06:17;;;;;;;3.13;0.60;;;22.80;60.30;;;;;;5071862;28;20101;-59
2022/06/19 09:09:04;;;;;;;4.30;0.65;;;22.80;60.30;;;;;;5073754;28;20049;-59
2022/06/19 09:11:39;;;;;;;4.55;0.90;;;22.80;60.30;;;;;;5076423;28;20485;-59
2022/06/19 09:14:22;;;;;;;2.53;0.55;;;22.80;60.30;;;;;;5074951;28;20076;-60
2022/06/19 09:17:11;;;;;;;4.63;0.63;;;22.80;60.30;;;;;;5076091;28;20048;-59
2022/06/19 09:19:57;;;;;;;3.05;0.50;;;22.80;60.30;;;;;;5075523;28;20053;-59
2022/06/19 09:22:46;;;;;;;2.90;0.63;;;22.80;60.50;;;;;;5074917;28;20131;-60
2022/06/19 09:25:49;;;;;;;2.33;0.70;;;22.80;60.30;;;;;;5075267;28;20049;-59
2022/06/19 09:28:52;;;;;;;4.20;0.73;;;22.80;60.20;;;;;;5074178;28;20052;-59
2022/06/19 09:31:34;;;;;;;4.18;0.68;;;22.80;60.20;;;;;;5074218;28;20044;-59
2022/06/19 09:34:00;;;;;;;6.18;0.80;;;22.80;60.20;;;;;;5056195;28;20408;-59
2022/06/19 09:36:36;;;;;;;5.93;0.88;;;22.80;60.20;;;;;;5073999;28;20045;-59
2022/06/19 09:39:15;;;;;;;3.13;0.77;;;22.80;60.20;;;;;;5073935;28;20044;-60
2022/06/19 09:41:52;;;;;;;6.00;1.02;;;22.80;60.20;;;;;;5073625;28;20051;-60
2022/06/19 09:44:20;;;;;;;7.38;1.95;;;22.80;60.20;;;;;;5073101;28;20070;-58
2022/06/19 09:46:55;;;;;;;13.10;2.53;;;22.80;60.20;;;;;;5073241;28;20048;-59
2022/06/19 09:49:36;;;;;;;9.45;2.33;;;22.80;60.30;;;;;;5073670;28;20098;-59
2022/06/19 09:52:06;;;;;;;11.40;2.95;;;22.80;60.50;;;;;;5073251;28;20408;-59
2022/06/19 09:54:35;;;;;;;14.65;3.85;;;22.90;60.60;;;;;;5073732;28;20098;-59
2022/06/19 09:57:09;;;;;;;12.48;2.63;;;22.90;60.60;;;;;;5072401;28;20054;-59
2022/06/19 09:59:41;;;;;;;9.30;2.60;;;22.90;60.70;;;;;;5073414;28;20105;-59
2022/06/19 10:02:28;;;;;;;11.55;2.83;;;22.90;60.80;;;;;;5073487;28;20047;-59
2022/06/19 10:04:57;;;;;;;15.75;3.55;;;23.00;61.00;;;;;;5073624;28;20086;-59
2022/06/19 10:07:44;;;;;;;13.27;2.75;;;23.00;60.90;;;;;;5073539;28;20098;-58
2022/06/19 10:10:35;;;;;;;10.75;2.75;;;23.00;60.80;;;;;;5073753;28;20048;-58
2022/06/19 10:13:02;;;;;;;11.93;2.95;;;23.00;61.00;;;;;;5075675;28;20051;-58
2022/06/19 10:15:32;;;;;;;9.75;3.03;;;23.00;61.00;;;;;;5056485;28;20145;-58
2022/06/19 10:18:04;;;;;;;13.10;3.17;;;23.00;61.10;;;;;;5072100;28;20114;-58
2022/06/19 10:20:42;;;;;;;10.65;2.80;;;23.00;61.10;;;;;;5074432;28;20044;-58
2022/06/19 10:23:21;;;;;;;;;;;23.00;61.20;;;;;;5073462;28;20101;-58
2022/06/19 10:26:05;;;;;;;11.88;2.72;;;23.00;61.10;;;;;;5054982;28;20410;-59
2022/06/19 10:28:48;;;;;;;11.70;2.80;;;23.00;61.30;;;;;;5073977;28;20043;-59
2022/06/19 10:31:36;;;;;;;12.27;2.65;;;23.00;61.10;;;;;;5072687;28;20049;-58
2022/06/19 10:34:14;;;;;;;10.85;2.38;;;23.00;61.10;;;;;;5074116;28;20097;-58
2022/06/19 10:37:06;;;;;;;9.27;2.67;;;23.00;61.10;;;;;;5074070;28;20093;-58
2022/06/19 10:40:18;;;;;;;8.93;2.38;;;23.00;61.20;;;;;;5074442;28;20086;-58
2022/06/19 10:42:54;;;;;;;9.40;2.78;;;23.00;61.10;;;;;;5041119;28;20052;-60
2022/06/19 10:45:27;;;;;;;10.82;2.80;;;23.00;61.10;;;;;;5072469;28;20083;-59
2022/06/19 10:48:11;;;;;;;8.23;2.40;;;23.00;61.00;;;;;;5071663;28;20045;-59
2022/06/19 10:50:40;;;;;;;8.60;2.13;;;23.00;61.10;;;;;;5073157;28;20404;-59
2022/06/19 10:53:15;;;;;;;8.02;2.05;;;23.00;61.10;;;;;;5072880;28;20419;-59
2022/06/19 10:55:59;;;;;;;10.48;2.50;;;23.00;61.10;;;;;;5073194;28;20048;-59
2022/06/19 10:58:26;;;;;;;9.63;2.63;;;23.00;61.10;;;;;;5073471;28;20448;-59
2022/06/19 11:04:06;;;;;;;10.73;2.40;;;23.00;61.10;;;;;;5070345;28;20045;-60
2022/06/19 11:04:10;;;;;;;10.18;2.60;;;23.00;61.10;;;;;;5072848;28;20049;-59
2022/06/19 11:06:39;;;;;;;10.82;2.70;;;23.00;61.10;;;;;;5070821;28;20444;-58
2022/06/19 11:09:14;;;;;;;8.70;2.20;;;23.00;61.00;;;;;;5072435;28;20135;-59
2022/06/19 11:11:39;;;;;;;9.30;2.33;;;23.00;61.00;;;;;;5072113;28;20052;-59
2022/06/19 11:14:09;;;;;;;8.80;2.33;;;23.00;61.00;;;;;;5070598;28;20040;-59
2022/06/19 11:16:52;;;;;;;11.63;2.40;;;23.00;61.00;;;;;;5073139;28;20052;-59
2022/06/19 11:19:32;;;;;;;7.32;1.95;;;23.00;61.20;;;;;;5073201;28;20045;-59
2022/06/19 11:22:20;;;;;;;8.85;2.15;;;23.00;61.20;;;;;;5088904;27;20875;-58
2022/06/19 11:24:45;;;;;;;9.88;1.83;;;23.00;61.20;;;;;;5088097;28;20553;-59
2022/06/19 11:27:20;;;;;;;9.75;1.63;;;23.00;61.10;;;;;;5088507;28;20036;-59
2022/06/19 11:29:47;;;;;;;10.38;1.92;;;23.00;61.00;;;;;;5087652;28;20070;-59
2022/06/19 11:32:20;;;;;;;9.73;2.13;;;23.00;61.10;;;;;;5088475;28;20051;-58
2022/06/19 11:35:00;;;;;;;15.63;2.15;;;23.00;61.00;;;;;;5084723;28;20064;-61
2022/06/19 11:37:37;;;;;;;7.50;2.10;;;23.00;60.80;;;;;;5088647;28;20058;-59
2022/06/19 11:40:05;;;;;;;7.93;1.70;;;23.00;60.80;;;;;;5089367;28;20483;-59
2022/06/19 11:42:44;;;;;;;8.63;1.90;;;23.00;60.80;;;;;;5087922;28;20058;-59
2022/06/19 11:45:13;;;;;;;6.28;1.83;;;23.00;60.70;;;;;;5089853;28;20093;-59
2022/06/19 11:47:42;;;;;;;6.25;1.42;;;23.00;60.80;;;;;;5089022;28;20050;-59
2022/06/19 11:50:19;;;;;;;8.73;1.40;;;23.00;60.70;;;;;;5086029;28;20042;-59
2022/06/19 11:52:49;;;;;;;6.40;1.63;;;23.00;60.70;;;;;;5088770;28;20040;-59
2022/06/19 11:55:20;;;;;;;10.57;2.25;;;23.00;60.70;;;;;;5088141;28;20042;-59
2022/06/19 11:57:51;;;;;;;8.82;2.20;;;23.00;60.70;;;;;;5086912;28;20036;-58
2022/06/19 12:00:25;;;;;;;5.97;1.40;;;22.90;60.70;;;;;;5087679;28;20509;-59
2022/06/19 12:02:55;;;;;;;7.47;1.67;;;23.00;60.80;;;;;;5097066;28;20036;-59
2022/06/19 12:05:32;;;;;;;8.75;1.83;;;23.00;60.80;;;;;;5070638;28;20047;-59
2022/06/19 12:08:16;;;;;;;5.23;1.57;;;23.00;60.80;;;;;;5111857;28;20040;-58
2022/06/19 12:10:42;;;;;;;7.72;1.77;;;22.90;60.80;;;;;;5111082;28;20578;-58
2022/06/19 12:13:22;;;;;;;8.98;1.75;;;22.90;60.90;;;;;;5088276;28;20098;-59
2022/06/19 12:16:02;;;;;;;8.68;1.70;;;22.90;60.90;;;;;;5087519;28;20122;-59
2022/06/19 12:18:28;;;;;;;6.38;1.63;;;22.90;60.90;;;;;;5088124;28;20111;-59
2022/06/19 12:21:24;;;;;;;9.02;2.00;;;22.90;60.90;;;;;;5087612;28;20067;-59
2022/06/19 12:24:02;;;;;;;7.65;1.90;;;22.90;60.90;;;;;;5075025;28;20053;-59
2022/06/19 12:26:49;;;;;;;5.70;1.50;;;22.90;61.00;;;;;;5067550;28;20056;-62
2022/06/19 12:29:24;;;;;;;7.22;1.58;;;22.90;61.00;;;;;;5100719;28;20154;-59
2022/06/19 12:31:50;;;;;;;9.23;1.98;;;22.90;61.00;;;;;;5094377;28;20124;-59
2022/06/19 12:34:36;;;;;;;6.13;1.67;;;22.90;61.00;;;;;;5070974;28;20133;-59
2022/06/19 12:37:01;;;;;;;7.38;1.45;;;22.90;60.90;;;;;;5069646;28;20052;-59
2022/06/19 12:39:31;;;;;;;8.95;1.50;;;22.90;60.90;;;;;;5054418;28;20049;-59
2022/06/19 12:42:28;;;;;;;7.72;1.42;;;22.90;60.90;;;;;;5086350;28;20041;-59
2022/06/19 12:45:14;;;;;;;4.53;1.30;;;22.90;60.80;;;;;;5054809;28;20081;-59
2022/06/19 12:48:04;;;;;;;7.28;1.77;;;23.00;60.90;;;;;;5087284;28;20051;-59
2022/06/19 12:50:49;;;;;;;7.28;1.52;;;23.00;60.80;;;;;;5055149;28;20044;-59
2022/06/19 12:53:47;;;;;;;4.60;1.35;;;23.00;60.70;;;;;;5069034;28;20489;-58
2022/06/19 12:56:15;;;;;;;7.50;1.50;;;23.00;60.60;;;;;;5052643;28;20144;-58
2022/06/19 12:58:48;;;;;;;4.97;1.58;;;23.10;60.70;;;;;;5054732;28;20045;-59
2022/06/19 13:01:51;;;;;;;8.18;1.20;;;23.10;60.60;;;;;;5086438;28;20128;-59
2022/06/19 13:04:46;;;;;;;5.38;1.10;;;23.10;60.60;;;;;;5066655;28;20041;-60
2022/06/19 13:07:53;;;;;;;4.57;1.38;;;23.00;60.50;;;;;;5063547;28;20455;-59
2022/06/19 13:10:47;;;;;;;6.30;1.40;;;23.10;60.40;;;;;;5063276;28;20045;-59